createdAt,value
2022-12-13T00:04:13.881Z,51.65
2022-12-13T00:09:06.737Z,51.40
2022-12-13T00:14:00.650Z,55.88
2022-12-13T00:18:59.100Z,48.28
2022-12-13T00:23:53.045Z,57.33
2022-12-13T00:28:48.553Z,62.00
2022-12-13T00:33:42.389Z,54.90
2022-12-13T00:38:36.600Z,57.60
2022-12-13T00:43:29.708Z,63.40
2022-12-13T00:48:24.377Z,59.65
2022-12-13T00:53:18.889Z,54.72
2022-12-13T00:58:12.208Z,51.75
2022-12-13T01:03:20.871Z,50.33
2022-12-13T01:08:15.503Z,44.72
2022-12-13T01:13:09.688Z,47.60
2022-12-13T01:18:02.677Z,42.83
2022-12-13T01:22:56.390Z,55.55
2022-12-13T01:27:50.566Z,71.00
2022-12-13T01:32:43.944Z,54.35
2022-12-13T01:37:37.910Z,54.67
2022-12-13T01:42:32.110Z,67.07
2022-12-13T01:47:30.077Z,79.47
2022-12-13T01:52:24.152Z,66.32
2022-12-13T01:57:18.331Z,81.70
2022-12-13T02:02:13.737Z,86.88
2022-12-13T02:07:08.938Z,96.25
2022-12-13T02:12:07.238Z,85.97
2022-12-13T02:17:06.442Z,63.05
2022-12-13T02:27:05.494Z,59.90
2022-12-13T02:32:10.915Z,71.80
2022-12-13T02:37:23.386Z,62.25
2022-12-13T02:42:34.801Z,64.38
2022-12-13T02:47:30.333Z,56.25
2022-12-13T02:52:25.825Z,63.40
2022-12-13T02:57:39.209Z,63.45
2022-12-13T03:02:34.968Z,60.55
2022-12-13T03:07:33.670Z,61.30
2022-12-13T03:12:59.911Z,59.58
2022-12-13T03:17:57.174Z,55.42
2022-12-13T03:22:51.985Z,56.45
2022-12-13T03:27:45.357Z,61.35
2022-12-13T03:32:39.850Z,58.15
2022-12-13T03:37:33.766Z,54.38
2022-12-13T03:42:27.501Z,46.72
2022-12-13T03:47:21.671Z,55.72
2022-12-13T03:52:14.855Z,55.72
2022-12-13T03:57:08.231Z,55.28
2022-12-13T04:02:02.153Z,56.78
2022-12-13T04:06:57.746Z,53.72
2022-12-13T04:12:10.279Z,53.47
2022-12-13T04:17:03.970Z,54.00
2022-12-13T04:21:57.849Z,51.55
2022-12-13T04:26:51.637Z,42.67
2022-12-13T04:31:45.367Z,44.08
2022-12-13T04:36:39.752Z,44.20
2022-12-13T04:41:37.064Z,43.88
2022-12-13T04:46:30.602Z,41.63
2022-12-13T04:51:24.794Z,43.58
2022-12-13T04:56:18.824Z,43.92
2022-12-13T05:01:12.317Z,43.75
2022-12-13T05:06:27.243Z,39.75
2022-12-13T05:11:22.996Z,39.55
2022-12-13T05:16:24.871Z,43.00
2022-12-13T05:21:19.080Z,36.72
2022-12-13T05:26:12.822Z,40.85
2022-12-13T05:31:22.715Z,38.20
2022-12-13T05:36:17.524Z,35.95
2022-12-13T05:41:15.686Z,41.33
2022-12-13T05:46:09.741Z,38.60
2022-12-13T05:51:09.927Z,39.22
2022-12-13T05:56:06.542Z,38.25
2022-12-13T06:01:19.693Z,33.58
2022-12-13T06:06:13.513Z,33.40
2022-12-13T06:11:10.859Z,29.95
2022-12-13T06:16:06.949Z,29.77
2022-12-13T06:21:17.661Z,27.83
2022-12-13T06:26:11.898Z,32.38
2022-12-13T06:31:05.667Z,27.67
2022-12-13T06:35:59.503Z,28.83
2022-12-13T06:40:53.373Z,28.67
2022-12-13T06:45:46.986Z,24.67
2022-12-13T06:50:40.360Z,23.83
2022-12-13T06:55:33.151Z,31.40
2022-12-13T07:00:35.690Z,25.52
2022-12-13T07:05:31.261Z,29.80
2022-12-13T07:10:24.750Z,35.78
2022-12-13T07:15:18.790Z,25.15
2022-12-13T07:20:15.542Z,33.10
2022-12-13T07:25:08.467Z,38.00
2022-12-13T07:30:21.576Z,32.28
2022-12-13T07:35:15.771Z,29.20
2022-12-13T07:40:11.623Z,27.77
2022-12-13T07:45:05.731Z,25.00
2022-12-13T07:49:58.692Z,29.80
2022-12-13T07:54:52.826Z,31.27
2022-12-13T07:59:47.121Z,32.90
2022-12-13T08:04:43.158Z,23.70
2022-12-13T08:09:37.269Z,22.83
2022-12-13T08:14:31.760Z,21.38
2022-12-13T08:19:25.593Z,19.15
2022-12-13T08:24:20.124Z,20.80
2022-12-13T08:29:23.427Z,20.63
2022-12-13T08:34:26.829Z,25.52
2022-12-13T08:39:21.162Z,27.60
2022-12-13T08:44:14.146Z,20.48
2022-12-13T08:49:08.439Z,19.33
2022-12-13T08:54:11.235Z,18.95
2022-12-13T08:59:04.869Z,22.02
2022-12-13T09:03:58.429Z,20.73
2022-12-13T09:08:54.338Z,20.70
2022-12-13T09:13:47.473Z,21.45
2022-12-13T09:18:41.403Z,18.30
2022-12-13T09:23:36.849Z,20.08
2022-12-13T09:28:40.154Z,21.40
2022-12-13T09:33:41.514Z,17.90
2022-12-13T09:38:35.898Z,17.73
2022-12-13T09:43:33.461Z,20.10
2022-12-13T09:48:37.465Z,22.02
2022-12-13T09:53:33.492Z,21.65
2022-12-13T09:58:50.654Z,23.77
2022-12-13T10:03:48.151Z,22.30
2022-12-13T10:08:45.098Z,20.90
2022-12-13T10:13:40.523Z,20.48
2022-12-13T10:18:38.164Z,21.55
2022-12-13T10:23:42.810Z,18.17
2022-12-13T10:28:45.091Z,16.33
2022-12-13T10:33:39.439Z,16.08
2022-12-13T10:38:36.233Z,48.33
2022-12-13T10:43:30.681Z,25.70
2022-12-13T10:48:49.577Z,15.55
2022-12-13T10:53:48.444Z,16.48
2022-12-13T10:58:44.413Z,19.60
2022-12-13T11:03:38.390Z,15.82
2022-12-13T11:08:32.106Z,14.20
2022-12-13T11:13:34.921Z,16.00
2022-12-13T11:18:28.159Z,36.47
2022-12-13T11:23:41.324Z,14.35
2022-12-13T11:28:53.046Z,15.25
2022-12-13T11:34:07.348Z,21.88
2022-12-13T11:39:19.271Z,19.08
2022-12-13T11:44:28.917Z,16.00
2022-12-13T11:49:41.216Z,13.40
2022-12-13T11:54:47.944Z,13.75
2022-12-13T11:59:48.362Z,11.77
2022-12-13T12:04:55.045Z,12.50
2022-12-13T12:10:18.347Z,14.75
2022-12-13T12:15:16.834Z,15.27
2022-12-13T12:20:14.522Z,13.63
2022-12-13T12:25:32.166Z,15.95
2022-12-13T12:30:54.238Z,13.93
2022-12-13T12:36:09.893Z,17.27
2022-12-13T12:41:30.791Z,13.25
2022-12-13T12:52:11.293Z,15.25
2022-12-13T12:57:16.242Z,14.63
2022-12-13T13:02:18.440Z,20.15
2022-12-13T13:07:23.482Z,20.45
2022-12-13T13:12:28.763Z,16.60
2022-12-13T13:17:25.385Z,12.73
2022-12-13T13:22:44.157Z,15.70
2022-12-13T13:32:45.031Z,14.20
2022-12-13T13:37:47.903Z,14.52
2022-12-13T13:43:17.736Z,15.15
2022-12-13T13:48:22.397Z,14.73
2022-12-13T13:53:49.998Z,12.98
2022-12-13T13:58:51.903Z,13.25
2022-12-13T14:04:17.353Z,13.70
2022-12-13T14:09:49.900Z,15.10
2022-12-13T14:15:17.968Z,12.52
2022-12-13T14:20:48.681Z,11.63
2022-12-13T14:25:56.271Z,11.40
2022-12-13T14:30:57.382Z,14.88
2022-12-13T14:36:14.603Z,12.38
2022-12-13T14:41:17.263Z,13.60
2022-12-13T14:46:14.504Z,11.95
2022-12-13T14:51:24.975Z,13.85
2022-12-13T14:56:28.380Z,14.30
2022-12-13T15:01:29.938Z,15.40
2022-12-13T15:06:24.701Z,16.17
2022-12-13T15:11:18.513Z,15.45
2022-12-13T15:16:28.477Z,15.93
2022-12-13T15:21:28.750Z,15.02
2022-12-13T15:26:30.861Z,14.45
2022-12-13T15:31:24.320Z,16.95
2022-12-13T15:36:26.957Z,14.23
2022-12-13T15:41:21.360Z,14.48
2022-12-13T15:46:14.365Z,15.23
2022-12-13T15:51:09.886Z,17.10
2022-12-13T15:56:09.485Z,15.70
2022-12-13T16:01:05.643Z,15.27
2022-12-13T16:05:59.670Z,16.20
2022-12-13T16:10:54.006Z,16.70
2022-12-13T16:15:52.514Z,17.98
2022-12-13T16:20:54.397Z,18.23
2022-12-13T16:25:47.508Z,16.67
2022-12-13T16:30:52.956Z,21.30
2022-12-13T16:35:47.113Z,15.68
2022-12-13T16:40:41.538Z,17.88
2022-12-13T16:45:43.345Z,16.92
2022-12-13T16:50:37.875Z,18.95
2022-12-13T16:55:31.225Z,17.40
2022-12-13T17:00:24.397Z,15.82
2022-12-13T17:05:18.449Z,18.67
2022-12-13T17:10:13.051Z,17.00
2022-12-13T17:15:07.203Z,18.40
2022-12-13T17:20:01.496Z,16.27
2022-12-13T17:24:54.880Z,18.48
2022-12-13T17:29:49.228Z,15.63
2022-12-13T17:34:43.359Z,16.27
2022-12-13T17:39:37.456Z,19.15
2022-12-13T17:44:31.704Z,18.98
2022-12-13T17:49:25.053Z,18.00
2022-12-13T17:54:19.137Z,21.48
2022-12-13T17:59:16.176Z,22.70
2022-12-13T18:04:09.910Z,18.75
2022-12-13T18:09:03.598Z,21.35
2022-12-13T18:13:57.128Z,17.90
2022-12-13T18:18:55.435Z,21.52
2022-12-13T18:23:55.794Z,19.95
2022-12-13T18:28:48.855Z,29.20
2022-12-13T18:33:47.314Z,22.98
2022-12-13T18:38:43.123Z,25.70
2022-12-13T18:43:40.398Z,29.90
2022-12-13T18:48:34.527Z,23.33
2022-12-13T18:53:29.467Z,24.13
2022-12-13T18:58:23.571Z,28.80
2022-12-13T19:03:17.063Z,24.33
2022-12-13T19:08:10.905Z,46.33
2022-12-13T19:13:03.997Z,30.17
2022-12-13T19:17:58.175Z,27.88
2022-12-13T19:22:52.237Z,23.40
2022-12-13T19:27:47.776Z,22.55
2022-12-13T19:32:41.808Z,25.15
2022-12-13T19:37:42.287Z,26.58
2022-12-13T19:42:36.081Z,26.08
2022-12-13T19:47:30.030Z,26.55
2022-12-13T19:52:23.901Z,25.15
2022-12-13T19:57:19.706Z,21.33
2022-12-13T20:02:14.779Z,22.30
2022-12-13T20:07:08.404Z,23.42
2022-12-13T20:12:01.227Z,24.33
2022-12-13T20:16:54.941Z,23.13
2022-12-13T20:21:51.137Z,29.67
2022-12-13T20:26:48.825Z,32.92
2022-12-13T20:31:42.525Z,23.88
2022-12-13T20:36:43.229Z,30.17
2022-12-13T20:41:36.634Z,27.30
2022-12-13T20:46:31.948Z,31.25
2022-12-13T20:51:27.291Z,27.95
2022-12-13T20:56:36.477Z,28.50
2022-12-13T21:01:31.892Z,24.38
2022-12-13T21:06:25.508Z,27.13
2022-12-13T21:11:25.908Z,29.67
2022-12-13T21:16:19.239Z,37.35
2022-12-13T21:21:13.258Z,26.30
2022-12-13T21:26:07.009Z,27.25
2022-12-13T21:31:02.398Z,68.00
2022-12-13T21:35:55.315Z,81.78
2022-12-13T21:40:50.132Z,36.00
2022-12-13T21:45:43.988Z,29.73
2022-12-13T21:50:37.617Z,24.88
2022-12-13T21:55:38.755Z,24.33
2022-12-13T22:00:34.912Z,27.33
2022-12-13T22:05:28.578Z,28.20
2022-12-13T22:10:23.657Z,23.45
2022-12-13T22:15:16.740Z,27.25
2022-12-13T22:20:13.094Z,25.65
2022-12-13T22:25:09.876Z,24.85
2022-12-13T22:30:03.915Z,22.88
2022-12-13T22:34:56.828Z,23.15
2022-12-13T22:39:49.337Z,25.27
2022-12-13T22:44:42.800Z,22.92
2022-12-13T22:49:35.046Z,22.83
2022-12-13T22:54:29.462Z,26.02
2022-12-13T22:59:23.619Z,23.38
2022-12-13T23:04:16.354Z,26.63
2022-12-13T23:09:13.727Z,26.10
2022-12-13T23:14:09.306Z,25.30
2022-12-13T23:19:39.223Z,23.77
2022-12-13T23:24:17.021Z,24.17
2022-12-13T23:29:10.600Z,25.35
2022-12-13T23:34:03.839Z,27.77
2022-12-13T23:39:00.078Z,27.48
2022-12-13T23:43:55.569Z,24.52
2022-12-13T23:48:49.419Z,26.10
2022-12-13T23:53:41.945Z,27.88
2022-12-13T23:58:37.103Z,24.35
